PWSweather.com
Personal Weather Stations
Station Observations
KILMORRI1
Goose Lake, Morris, IL 60450

Goose LakeMorris, IL 60450

Lat: 41.34, Lon: -88.3

Elevation: 523

Station Type:

www.gooselakeweather.com

High Low Average
Temperature 60.4°F15.8°C 55.9°F13.3°C 57.8°F14.3°C
Dew Point 57.5°F14.2°C 53.5°F11.9°C 55.2°F12.9°C
Winds 8.1 mph 13.0 kmh Calm Calm 2.0 mph SE3.2 kmh SE
Wind Gusts 10.4 mph16.7 kmh -- 3.0 mph4.8 kmh
Humidity 96% 86% 91%
Pressure 30.16 in1021.3 mb 30.08 in1018.6 mb -
Precipitation 0.00 in0.0 mm - -
Hour Temp Dew Point Humidity Winds Wind Gusts Pressure Precip Precip Rate Daily Precip Total
12:00 AM 56.8°F13.8°C 53.9°F12.2°C 90% 5.8 mph E9.3 kmh E 10.4 mph16.7 kmh 30.12 in1020.0 mb - 0.00 in0.0 mm 0.00 in0.0 mm
12:10 AM 56.8°F13.8°C 53.9°F12.2°C 90% 6.9 mph E11.1 kmh E 9.2 mph14.8 kmh 30.12 in1020.0 mb - 0.00 in0.0 mm 0.00 in0.0 mm
12:20 AM 56.7°F13.7°C 53.8°F12.1°C 90% 4.6 mph ESE7.4 kmh ESE 6.9 mph11.1 kmh 30.12 in1020.0 mb - 0.00 in0.0 mm 0.00 in0.0 mm
12:30 AM 56.6°F13.7°C 53.7°F12.1°C 90% 3.5 mph ESE5.6 kmh ESE 6.9 mph11.1 kmh 30.12 in1020.0 mb - 0.00 in0.0 mm 0.00 in0.0 mm
12:40 AM 56.6°F13.7°C 54.0°F12.2°C 91% 2.3 mph E3.7 kmh E 4.6 mph7.4 kmh 30.13 in1020.3 mb - 0.00 in0.0 mm 0.00 in0.0 mm
12:50 AM 56.6°F13.7°C 54.0°F12.2°C 91% 1.2 mph E1.9 kmh E 3.5 mph5.6 kmh 30.13 in1020.3 mb - 0.00 in0.0 mm 0.00 in0.0 mm
01:00 AM 56.5°F13.6°C 53.9°F12.2°C 91% 1.2 mph E1.9 kmh E 2.3 mph3.7 kmh 30.13 in1020.3 mb - 0.00 in0.0 mm 0.00 in0.0 mm
01:10 AM 56.5°F13.6°C 53.9°F12.2°C 91% 1.2 mph ESE1.9 kmh ESE 2.3 mph3.7 kmh 30.13 in1020.3 mb - 0.00 in0.0 mm 0.00 in0.0 mm
01:20 AM 56.5°F13.6°C 53.9°F12.2°C 91% Calm Calm -- 30.13 in1020.3 mb - 0.00 in0.0 mm 0.00 in0.0 mm
01:30 AM 56.5°F13.6°C 53.9°F12.2°C 91% 1.2 mph E1.9 kmh E 3.5 mph5.6 kmh 30.14 in1020.7 mb - 0.00 in0.0 mm 0.00 in0.0 mm
01:40 AM 56.4°F13.6°C 53.8°F12.1°C 91% 1.2 mph E1.9 kmh E 2.3 mph3.7 kmh 30.14 in1020.7 mb - 0.00 in0.0 mm 0.00 in0.0 mm
01:50 AM 56.5°F13.6°C 53.9°F12.2°C 91% 1.2 mph E1.9 kmh E 3.5 mph5.6 kmh 30.14 in1020.7 mb - 0.00 in0.0 mm 0.00 in0.0 mm
02:00 AM 56.5°F13.6°C 53.9°F12.2°C 91% 3.5 mph E5.6 kmh E 4.6 mph7.4 kmh 30.14 in1020.7 mb - 0.00 in0.0 mm 0.00 in0.0 mm
02:10 AM 56.5°F13.6°C 53.6°F12.0°C 90% 2.3 mph E3.7 kmh E 3.5 mph5.6 kmh 30.14 in1020.7 mb - 0.00 in0.0 mm 0.00 in0.0 mm
02:20 AM 56.5°F13.6°C 53.6°F12.0°C 90% 3.5 mph E5.6 kmh E 4.6 mph7.4 kmh 30.14 in1020.7 mb - 0.00 in0.0 mm 0.00 in0.0 mm
02:30 AM 56.5°F13.6°C 53.6°F12.0°C 90% 2.3 mph ESE3.7 kmh ESE 4.6 mph7.4 kmh 30.14 in1020.7 mb - 0.00 in0.0 mm 0.00 in0.0 mm
02:40 AM 56.5°F13.6°C 53.9°F12.2°C 91% 3.5 mph E5.6 kmh E 4.6 mph7.4 kmh 30.14 in1020.7 mb - 0.00 in0.0 mm 0.00 in0.0 mm
02:50 AM 56.5°F13.6°C 54.0°F12.2°C 91% 2.3 mph E3.7 kmh E 3.5 mph5.6 kmh 30.14 in1020.7 mb - 0.00 in0.0 mm 0.00 in0.0 mm
03:00 AM 56.5°F13.6°C 53.9°F12.2°C 91% 2.3 mph E3.7 kmh E 3.5 mph5.6 kmh 30.14 in1020.7 mb - 0.00 in0.0 mm 0.00 in0.0 mm
03:10 AM 56.5°F13.6°C 53.9°F12.2°C 91% 1.2 mph E1.9 kmh E 3.5 mph5.6 kmh 30.14 in1020.7 mb - 0.00 in0.0 mm 0.00 in0.0 mm
03:20 AM 56.5°F13.6°C 53.9°F12.2°C 91% 1.2 mph E1.9 kmh E 2.3 mph3.7 kmh 30.14 in1020.7 mb - 0.00 in0.0 mm 0.00 in0.0 mm
03:30 AM 56.4°F13.6°C 53.8°F12.1°C 91% 2.3 mph ESE3.7 kmh ESE 3.5 mph5.6 kmh 30.14 in1020.7 mb - 0.00 in0.0 mm 0.00 in0.0 mm
03:40 AM 56.4°F13.6°C 53.8°F12.1°C 91% 3.5 mph E5.6 kmh E 4.6 mph7.4 kmh 30.14 in1020.7 mb - 0.00 in0.0 mm 0.00 in0.0 mm
03:50 AM 56.4°F13.6°C 53.8°F12.1°C 91% 2.3 mph E3.7 kmh E 6.9 mph11.1 kmh 30.14 in1020.7 mb - 0.00 in0.0 mm 0.00 in0.0 mm
04:00 AM 56.4°F13.6°C 53.8°F12.1°C 91% 2.3 mph E3.7 kmh E 3.5 mph5.6 kmh 30.14 in1020.7 mb - 0.00 in0.0 mm 0.00 in0.0 mm
04:10 AM 56.4°F13.6°C 53.9°F12.2°C 91% 4.6 mph E7.4 kmh E 6.9 mph11.1 kmh 30.14 in1020.7 mb - 0.00 in0.0 mm 0.00 in0.0 mm
04:20 AM 56.3°F13.5°C 53.7°F12.1°C 91% 3.5 mph ESE5.6 kmh ESE 3.5 mph5.6 kmh 30.14 in1020.7 mb - 0.00 in0.0 mm 0.00 in0.0 mm
04:30 AM 56.2°F13.4°C 53.6°F12.0°C 91% 4.6 mph ESE7.4 kmh ESE 8.1 mph13.0 kmh 30.14 in1020.7 mb - 0.00 in0.0 mm 0.00 in0.0 mm
04:40 AM 56.2°F13.4°C 53.6°F12.0°C 91% 2.3 mph E3.7 kmh E 3.5 mph5.6 kmh 30.14 in1020.7 mb - 0.00 in0.0 mm 0.00 in0.0 mm
04:50 AM 56.2°F13.4°C 53.6°F12.0°C 91% 4.6 mph ESE7.4 kmh ESE 8.1 mph13.0 kmh 30.14 in1020.7 mb - 0.00 in0.0 mm 0.00 in0.0 mm
05:00 AM 56.2°F13.4°C 53.6°F12.0°C 91% 4.6 mph E7.4 kmh E 5.8 mph9.3 kmh 30.14 in1020.7 mb - 0.00 in0.0 mm 0.00 in0.0 mm
05:10 AM 56.2°F13.4°C 53.6°F12.0°C 91% 4.6 mph ESE7.4 kmh ESE 8.1 mph13.0 kmh 30.14 in1020.7 mb - 0.00 in0.0 mm 0.00 in0.0 mm
05:20 AM 56.1°F13.4°C 53.5°F11.9°C 91% 2.3 mph ESE3.7 kmh ESE 3.5 mph5.6 kmh 30.14 in1020.7 mb - 0.00 in0.0 mm 0.00 in0.0 mm
05:30 AM 56.1°F13.4°C 53.5°F11.9°C 91% 3.5 mph ESE5.6 kmh ESE 6.9 mph11.1 kmh 30.14 in1020.7 mb - 0.00 in0.0 mm 0.00 in0.0 mm
05:40 AM 56.1°F13.4°C 53.5°F11.9°C 91% 2.3 mph ESE3.7 kmh ESE 3.5 mph5.6 kmh 30.15 in1021.0 mb - 0.00 in0.0 mm 0.00 in0.0 mm
05:50 AM 56.1°F13.4°C 53.8°F12.1°C 92% 1.2 mph E1.9 kmh E 2.3 mph3.7 kmh 30.15 in1021.0 mb - 0.00 in0.0 mm 0.00 in0.0 mm
06:00 AM 56.1°F13.4°C 53.8°F12.1°C 92% 1.2 mph E1.9 kmh E 4.6 mph7.4 kmh 30.15 in1021.0 mb - 0.00 in0.0 mm 0.00 in0.0 mm
06:10 AM 56.0°F13.3°C 53.7°F12.1°C 92% 2.3 mph ESE3.7 kmh ESE 4.6 mph7.4 kmh 30.15 in1021.0 mb - 0.00 in0.0 mm 0.00 in0.0 mm
06:20 AM 56.0°F13.3°C 53.7°F12.1°C 92% 2.3 mph E3.7 kmh E 3.5 mph5.6 kmh 30.15 in1021.0 mb - 0.00 in0.0 mm 0.00 in0.0 mm
06:30 AM 56.0°F13.3°C 53.7°F12.1°C 92% 2.3 mph ESE3.7 kmh ESE 3.5 mph5.6 kmh 30.15 in1021.0 mb - 0.00 in0.0 mm 0.00 in0.0 mm
06:40 AM 56.0°F13.3°C 53.7°F12.1°C 92% 2.3 mph E3.7 kmh E 3.5 mph5.6 kmh 30.15 in1021.0 mb - 0.00 in0.0 mm 0.00 in0.0 mm
06:50 AM 56.0°F13.3°C 53.7°F12.1°C 92% 2.3 mph ESE3.7 kmh ESE 3.5 mph5.6 kmh 30.15 in1021.0 mb - 0.00 in0.0 mm 0.00 in0.0 mm
07:00 AM 56.0°F13.3°C 53.7°F12.1°C 92% 2.3 mph SE3.7 kmh SE 3.5 mph5.6 kmh 30.15 in1021.0 mb - 0.00 in0.0 mm 0.00 in0.0 mm
07:10 AM 55.9°F13.3°C 53.6°F12.0°C 92% 2.3 mph E3.7 kmh E 5.8 mph9.3 kmh 30.14 in1020.7 mb - 0.00 in0.0 mm 0.00 in0.0 mm
07:20 AM 55.9°F13.3°C 53.6°F12.0°C 92% 2.3 mph E3.7 kmh E 3.5 mph5.6 kmh 30.14 in1020.7 mb - 0.00 in0.0 mm 0.00 in0.0 mm
07:30 AM 55.9°F13.3°C 53.6°F12.0°C 92% 1.2 mph E1.9 kmh E 2.3 mph3.7 kmh 30.15 in1021.0 mb - 0.00 in0.0 mm 0.00 in0.0 mm
07:40 AM 56.0°F13.3°C 54.0°F12.2°C 93% 2.3 mph E3.7 kmh E 3.5 mph5.6 kmh 30.15 in1021.0 mb - 0.00 in0.0 mm 0.00 in0.0 mm
07:50 AM 56.0°F13.3°C 53.7°F12.1°C 92% 2.3 mph ESE3.7 kmh ESE 4.6 mph7.4 kmh 30.15 in1021.0 mb - 0.00 in0.0 mm 0.00 in0.0 mm
08:00 AM 56.0°F13.3°C 53.7°F12.1°C 92% 1.2 mph E1.9 kmh E 3.5 mph5.6 kmh 30.15 in1021.0 mb - 0.00 in0.0 mm 0.00 in0.0 mm
08:10 AM 56.1°F13.4°C 53.8°F12.1°C 92% 2.3 mph ESE3.7 kmh ESE 3.5 mph5.6 kmh 30.15 in1021.0 mb - 0.00 in0.0 mm 0.00 in0.0 mm
08:20 AM 56.2°F13.4°C 53.9°F12.2°C 92% 2.3 mph ESE3.7 kmh ESE 4.6 mph7.4 kmh 30.15 in1021.0 mb - 0.00 in0.0 mm 0.00 in0.0 mm
08:30 AM 56.4°F13.6°C 54.1°F12.3°C 92% 3.5 mph ESE5.6 kmh ESE 3.5 mph5.6 kmh 30.16 in1021.3 mb - 0.00 in0.0 mm 0.00 in0.0 mm
08:40 AM 56.4°F13.6°C 53.8°F12.1°C 91% 3.5 mph SE5.6 kmh SE 3.5 mph5.6 kmh 30.16 in1021.3 mb - 0.00 in0.0 mm 0.00 in0.0 mm
08:50 AM 56.6°F13.7°C 54.0°F12.2°C 91% 2.3 mph E3.7 kmh E 5.8 mph9.3 kmh 30.16 in1021.3 mb - 0.00 in0.0 mm 0.00 in0.0 mm
09:00 AM 56.8°F13.8°C 54.2°F12.3°C 91% 2.3 mph E3.7 kmh E 3.5 mph5.6 kmh 30.16 in1021.3 mb - 0.00 in0.0 mm 0.00 in0.0 mm
09:10 AM 56.8°F13.8°C 53.9°F12.2°C 90% 4.6 mph E7.4 kmh E 5.8 mph9.3 kmh 30.16 in1021.3 mb - 0.00 in0.0 mm 0.00 in0.0 mm
09:20 AM 57.0°F13.9°C 54.4°F12.4°C 91% 3.5 mph ESE5.6 kmh ESE 3.5 mph5.6 kmh 30.16 in1021.3 mb - 0.00 in0.0 mm 0.00 in0.0 mm
09:30 AM 57.0°F13.9°C 54.4°F12.4°C 91% 2.3 mph SE3.7 kmh SE 3.5 mph5.6 kmh 30.16 in1021.3 mb - 0.00 in0.0 mm 0.00 in0.0 mm
09:40 AM 56.9°F13.8°C 54.3°F12.4°C 91% 4.6 mph ESE7.4 kmh ESE 6.9 mph11.1 kmh 30.16 in1021.3 mb - 0.00 in0.0 mm 0.00 in0.0 mm
09:50 AM 57.0°F13.9°C 54.4°F12.4°C 91% 3.5 mph E5.6 kmh E 5.8 mph9.3 kmh 30.16 in1021.3 mb - 0.00 in0.0 mm 0.00 in0.0 mm
10:00 AM 56.9°F13.8°C 54.3°F12.4°C 91% 5.8 mph ESE9.3 kmh ESE 10.4 mph16.7 kmh 30.15 in1021.0 mb - 0.00 in0.0 mm 0.00 in0.0 mm
10:10 AM 56.8°F13.8°C 53.9°F12.2°C 90% 2.3 mph ESE3.7 kmh ESE 3.5 mph5.6 kmh 30.16 in1021.3 mb - 0.00 in0.0 mm 0.00 in0.0 mm
10:20 AM 57.2°F14.0°C 54.6°F12.6°C 91% 3.5 mph ESE5.6 kmh ESE 4.6 mph7.4 kmh 30.16 in1021.3 mb - 0.00 in0.0 mm 0.00 in0.0 mm
10:30 AM 57.4°F14.1°C 54.5°F12.5°C 90% 8.1 mph SE13.0 kmh SE 10.4 mph16.7 kmh 30.15 in1021.0 mb - 0.00 in0.0 mm 0.00 in0.0 mm
10:40 AM 57.8°F14.3°C 54.6°F12.6°C 89% 3.5 mph SSE5.6 kmh SSE 4.6 mph7.4 kmh 30.15 in1021.0 mb - 0.00 in0.0 mm 0.00 in0.0 mm
10:50 AM 57.8°F14.3°C 54.6°F12.6°C 89% 3.5 mph ESE5.6 kmh ESE 3.5 mph5.6 kmh 30.15 in1021.0 mb - 0.00 in0.0 mm 0.00 in0.0 mm
11:00 AM 57.9°F14.4°C 54.9°F12.7°C 90% 4.6 mph ESE7.4 kmh ESE 5.8 mph9.3 kmh 30.15 in1021.0 mb - 0.00 in0.0 mm 0.00 in0.0 mm
11:10 AM 57.7°F14.3°C 54.8°F12.7°C 90% 3.5 mph SE5.6 kmh SE 4.6 mph7.4 kmh 30.15 in1021.0 mb - 0.00 in0.0 mm 0.00 in0.0 mm
11:20 AM 57.8°F14.3°C 54.8°F12.7°C 90% 4.6 mph SE7.4 kmh SE 4.6 mph7.4 kmh 30.15 in1021.0 mb - 0.00 in0.0 mm 0.00 in0.0 mm
11:30 AM 57.7°F14.3°C 54.5°F12.5°C 89% 3.5 mph SE5.6 kmh SE 4.6 mph7.4 kmh 30.14 in1020.7 mb - 0.00 in0.0 mm 0.00 in0.0 mm
11:40 AM 58.4°F14.7°C 54.9°F12.7°C 88% 2.3 mph SE3.7 kmh SE 3.5 mph5.6 kmh 30.14 in1020.7 mb - 0.00 in0.0 mm 0.00 in0.0 mm
11:50 AM 58.4°F14.7°C 54.9°F12.7°C 88% 3.5 mph SSE5.6 kmh SSE 3.5 mph5.6 kmh 30.14 in1020.7 mb - 0.00 in0.0 mm 0.00 in0.0 mm
12:00 PM 58.4°F14.7°C 54.9°F12.7°C 88% 2.3 mph ESE3.7 kmh ESE 3.5 mph5.6 kmh 30.14 in1020.7 mb - 0.00 in0.0 mm 0.00 in0.0 mm
12:10 PM 58.7°F14.8°C 55.2°F12.9°C 88% 3.5 mph ESE5.6 kmh ESE 4.6 mph7.4 kmh 30.14 in1020.7 mb - 0.00 in0.0 mm 0.00 in0.0 mm
12:20 PM 58.8°F14.9°C 54.9°F12.7°C 87% 2.3 mph SE3.7 kmh SE 4.6 mph7.4 kmh 30.14 in1020.7 mb - 0.00 in0.0 mm 0.00 in0.0 mm
12:30 PM 59.1°F15.1°C 55.8°F13.2°C 89% 3.5 mph SE5.6 kmh SE 4.6 mph7.4 kmh 30.13 in1020.3 mb - 0.00 in0.0 mm 0.00 in0.0 mm
12:40 PM 59.0°F15.0°C 55.5°F13.1°C 88% 1.2 mph SE1.9 kmh SE 3.5 mph5.6 kmh 30.13 in1020.3 mb - 0.00 in0.0 mm 0.00 in0.0 mm
12:50 PM 59.1°F15.1°C 55.5°F13.1°C 88% 1.2 mph SE1.9 kmh SE 3.5 mph5.6 kmh 30.13 in1020.3 mb - 0.00 in0.0 mm 0.00 in0.0 mm
01:00 PM 59.3°F15.2°C 55.1°F12.8°C 86% 2.3 mph ESE3.7 kmh ESE 4.6 mph7.4 kmh 30.12 in1020.0 mb - 0.00 in0.0 mm 0.00 in0.0 mm
01:10 PM 59.5°F15.3°C 55.3°F12.9°C 86% 2.3 mph SSE3.7 kmh SSE 3.5 mph5.6 kmh 30.12 in1020.0 mb - 0.00 in0.0 mm 0.00 in0.0 mm
01:20 PM 59.5°F15.3°C 55.3°F12.9°C 86% 2.3 mph ESE3.7 kmh ESE 4.6 mph7.4 kmh 30.12 in1020.0 mb - 0.00 in0.0 mm 0.00 in0.0 mm
01:30 PM 59.8°F15.4°C 55.9°F13.3°C 87% 2.3 mph S3.7 kmh S 3.5 mph5.6 kmh 30.11 in1019.6 mb - 0.00 in0.0 mm 0.00 in0.0 mm
01:40 PM 59.9°F15.5°C 56.0°F13.3°C 87% 1.2 mph SSE1.9 kmh SSE 3.5 mph5.6 kmh 30.11 in1019.6 mb - 0.00 in0.0 mm 0.00 in0.0 mm
01:50 PM 59.9°F15.5°C 55.7°F13.2°C 86% 1.2 mph SE1.9 kmh SE 1.2 mph1.9 kmh 30.11 in1019.6 mb - 0.00 in0.0 mm 0.00 in0.0 mm
02:00 PM 60.1°F15.6°C 55.9°F13.3°C 86% 1.2 mph SE1.9 kmh SE 3.5 mph5.6 kmh 30.11 in1019.6 mb - 0.00 in0.0 mm 0.00 in0.0 mm
02:10 PM 60.0°F15.6°C 55.8°F13.2°C 86% Calm Calm -- 30.11 in1019.6 mb - 0.00 in0.0 mm 0.00 in0.0 mm
02:20 PM 59.7°F15.4°C 55.5°F13.1°C 86% Calm Calm 2.3 mph3.7 kmh 30.11 in1019.6 mb - 0.00 in0.0 mm 0.00 in0.0 mm
02:30 PM 59.7°F15.4°C 55.8°F13.2°C 87% 1.2 mph SE1.9 kmh SE 1.2 mph1.9 kmh 30.11 in1019.6 mb - 0.00 in0.0 mm 0.00 in0.0 mm
02:40 PM 59.9°F15.5°C 56.0°F13.3°C 87% 1.2 mph SE1.9 kmh SE 3.5 mph5.6 kmh 30.11 in1019.6 mb - 0.00 in0.0 mm 0.00 in0.0 mm
02:50 PM 60.1°F15.6°C 55.9°F13.3°C 86% 1.2 mph SE1.9 kmh SE 3.5 mph5.6 kmh 30.10 in1019.3 mb - 0.00 in0.0 mm 0.00 in0.0 mm
03:00 PM 60.1°F15.6°C 55.9°F13.3°C 86% 1.2 mph SE1.9 kmh SE 3.5 mph5.6 kmh 30.10 in1019.3 mb - 0.00 in0.0 mm 0.00 in0.0 mm
03:10 PM 60.1°F15.6°C 56.2°F13.4°C 87% 1.2 mph SE1.9 kmh SE 3.5 mph5.6 kmh 30.10 in1019.3 mb - 0.00 in0.0 mm 0.00 in0.0 mm
03:20 PM 60.0°F15.6°C 56.1°F13.4°C 87% 1.2 mph S1.9 kmh S 2.3 mph3.7 kmh 30.10 in1019.3 mb - 0.00 in0.0 mm 0.00 in0.0 mm
03:30 PM 60.0°F15.6°C 56.1°F13.4°C 87% 2.3 mph S3.7 kmh S 3.5 mph5.6 kmh 30.10 in1019.3 mb - 0.00 in0.0 mm 0.00 in0.0 mm
03:40 PM 60.0°F15.6°C 56.1°F13.4°C 87% Calm Calm 3.5 mph5.6 kmh 30.10 in1019.3 mb - 0.00 in0.0 mm 0.00 in0.0 mm
03:50 PM 60.1°F15.6°C 56.2°F13.4°C 87% 3.5 mph SE5.6 kmh SE 4.6 mph7.4 kmh 30.09 in1019.0 mb - 0.00 in0.0 mm 0.00 in0.0 mm
04:00 PM 60.4°F15.8°C 56.5°F13.6°C 87% 1.2 mph SE1.9 kmh SE 2.3 mph3.7 kmh 30.09 in1019.0 mb - 0.00 in0.0 mm 0.00 in0.0 mm
04:10 PM 60.4°F15.8°C 56.2°F13.4°C 86% 1.2 mph SE1.9 kmh SE 3.5 mph5.6 kmh 30.09 in1019.0 mb - 0.00 in0.0 mm 0.00 in0.0 mm
04:20 PM 60.3°F15.7°C 56.4°F13.6°C 87% 2.3 mph ESE3.7 kmh ESE 3.5 mph5.6 kmh 30.09 in1019.0 mb - 0.00 in0.0 mm 0.00 in0.0 mm
04:30 PM 60.3°F15.7°C 56.7°F13.7°C 88% 2.3 mph ESE3.7 kmh ESE 3.5 mph5.6 kmh 30.09 in1019.0 mb - 0.00 in0.0 mm 0.00 in0.0 mm
04:40 PM 60.1°F15.6°C 56.5°F13.6°C 88% 2.3 mph ESE3.7 kmh ESE 3.5 mph5.6 kmh 30.09 in1019.0 mb - 0.00 in0.0 mm 0.00 in0.0 mm
04:50 PM 59.9°F15.5°C 56.4°F13.6°C 88% 1.2 mph SE1.9 kmh SE 3.5 mph5.6 kmh 30.09 in1019.0 mb - 0.00 in0.0 mm 0.00 in0.0 mm
05:00 PM 60.0°F15.6°C 56.4°F13.6°C 88% 2.3 mph ESE3.7 kmh ESE 3.5 mph5.6 kmh 30.09 in1019.0 mb - 0.00 in0.0 mm 0.00 in0.0 mm
05:10 PM 60.0°F15.6°C 56.4°F13.6°C 88% 3.5 mph ESE5.6 kmh ESE 4.6 mph7.4 kmh 30.08 in1018.6 mb - 0.00 in0.0 mm 0.00 in0.0 mm
05:20 PM 60.0°F15.6°C 56.4°F13.6°C 88% 3.5 mph ESE5.6 kmh ESE 3.5 mph5.6 kmh 30.08 in1018.6 mb - 0.00 in0.0 mm 0.00 in0.0 mm
05:30 PM 59.9°F15.5°C 56.3°F13.5°C 88% 2.3 mph SE3.7 kmh SE 3.5 mph5.6 kmh 30.08 in1018.6 mb - 0.00 in0.0 mm 0.00 in0.0 mm
05:40 PM 59.7°F15.4°C 56.5°F13.6°C 89% 3.5 mph ESE5.6 kmh ESE 4.6 mph7.4 kmh 30.08 in1018.6 mb - 0.00 in0.0 mm 0.00 in0.0 mm
05:50 PM 59.6°F15.3°C 56.4°F13.6°C 89% 1.2 mph ESE1.9 kmh ESE 2.3 mph3.7 kmh 30.08 in1018.6 mb - 0.00 in0.0 mm 0.00 in0.0 mm
06:00 PM 59.5°F15.3°C 56.6°F13.7°C 90% 1.2 mph ESE1.9 kmh ESE 2.3 mph3.7 kmh 30.08 in1018.6 mb - 0.00 in0.0 mm 0.00 in0.0 mm
06:10 PM 59.5°F15.3°C 56.6°F13.7°C 90% 1.2 mph SE1.9 kmh SE 3.5 mph5.6 kmh 30.08 in1018.6 mb - 0.00 in0.0 mm 0.00 in0.0 mm
06:20 PM 59.3°F15.2°C 56.4°F13.6°C 90% 1.2 mph SSE1.9 kmh SSE 3.5 mph5.6 kmh 30.08 in1018.6 mb - 0.00 in0.0 mm 0.00 in0.0 mm
06:30 PM 59.0°F15.0°C 56.4°F13.6°C 91% 1.2 mph SSE1.9 kmh SSE 2.3 mph3.7 kmh 30.08 in1018.6 mb - 0.00 in0.0 mm 0.00 in0.0 mm
06:40 PM 59.0°F15.0°C 56.4°F13.6°C 91% 1.2 mph SSE1.9 kmh SSE 2.3 mph3.7 kmh 30.08 in1018.6 mb - 0.00 in0.0 mm 0.00 in0.0 mm
06:50 PM 59.1°F15.1°C 56.5°F13.6°C 91% 2.3 mph SSE3.7 kmh SSE 3.5 mph5.6 kmh 30.08 in1018.6 mb - 0.00 in0.0 mm 0.00 in0.0 mm
07:00 PM 59.0°F15.0°C 56.4°F13.6°C 91% 1.2 mph SSE1.9 kmh SSE 3.5 mph5.6 kmh 30.09 in1019.0 mb - 0.00 in0.0 mm 0.00 in0.0 mm
07:10 PM 58.7°F14.8°C 56.4°F13.6°C 92% 1.2 mph SSE1.9 kmh SSE 2.3 mph3.7 kmh 30.08 in1018.6 mb - 0.00 in0.0 mm 0.00 in0.0 mm
07:20 PM 58.4°F14.7°C 56.4°F13.6°C 93% Calm Calm -- 30.08 in1018.6 mb - 0.00 in0.0 mm 0.00 in0.0 mm
07:30 PM 58.3°F14.6°C 56.6°F13.7°C 94% Calm Calm 1.2 mph1.9 kmh 30.08 in1018.6 mb - 0.00 in0.0 mm 0.00 in0.0 mm
07:40 PM 58.3°F14.6°C 56.6°F13.7°C 94% Calm Calm -- 30.09 in1019.0 mb - 0.00 in0.0 mm 0.00 in0.0 mm
07:50 PM 58.3°F14.6°C 56.6°F13.7°C 94% Calm Calm -- 30.09 in1019.0 mb - 0.00 in0.0 mm 0.00 in0.0 mm
08:00 PM 58.3°F14.6°C 56.6°F13.7°C 94% Calm Calm -- 30.09 in1019.0 mb - 0.00 in0.0 mm 0.00 in0.0 mm
08:10 PM 58.4°F14.7°C 57.0°F13.9°C 95% Calm Calm -- 30.09 in1019.0 mb - 0.00 in0.0 mm 0.00 in0.0 mm
08:20 PM 58.4°F14.7°C 57.0°F13.9°C 95% 1.2 mph SSE1.9 kmh SSE 3.5 mph5.6 kmh 30.09 in1019.0 mb - 0.00 in0.0 mm 0.00 in0.0 mm
08:30 PM 58.5°F14.7°C 56.8°F13.8°C 94% 2.3 mph SSE3.7 kmh SSE 3.5 mph5.6 kmh 30.09 in1019.0 mb - 0.00 in0.0 mm 0.00 in0.0 mm
08:40 PM 58.5°F14.7°C 56.8°F13.8°C 94% 1.2 mph SE1.9 kmh SE 2.3 mph3.7 kmh 30.09 in1019.0 mb - 0.00 in0.0 mm 0.00 in0.0 mm
08:50 PM 58.6°F14.8°C 57.1°F13.9°C 95% Calm Calm 2.3 mph3.7 kmh 30.09 in1019.0 mb - 0.00 in0.0 mm 0.00 in0.0 mm
09:00 PM 58.5°F14.7°C 57.1°F13.9°C 95% 2.3 mph SE3.7 kmh SE 4.6 mph7.4 kmh 30.09 in1019.0 mb - 0.00 in0.0 mm 0.00 in0.0 mm
09:10 PM 58.4°F14.7°C 56.7°F13.7°C 94% 1.2 mph SE1.9 kmh SE 3.5 mph5.6 kmh 30.09 in1019.0 mb - 0.00 in0.0 mm 0.00 in0.0 mm
09:20 PM 57.9°F14.4°C 56.5°F13.6°C 95% Calm Calm 2.3 mph3.7 kmh 30.09 in1019.0 mb - 0.00 in0.0 mm 0.00 in0.0 mm
09:30 PM 57.4°F14.1°C 56.0°F13.3°C 95% Calm Calm 1.2 mph1.9 kmh 30.09 in1019.0 mb - 0.00 in0.0 mm 0.00 in0.0 mm
09:40 PM 56.8°F13.8°C 55.4°F13.0°C 95% Calm Calm 1.2 mph1.9 kmh 30.09 in1019.0 mb - 0.00 in0.0 mm 0.00 in0.0 mm
09:50 PM 56.6°F13.7°C 55.2°F12.9°C 95% 1.2 mph SE1.9 kmh SE 2.3 mph3.7 kmh 30.09 in1019.0 mb - 0.00 in0.0 mm 0.00 in0.0 mm
10:00 PM 56.9°F13.8°C 55.8°F13.2°C 96% Calm Calm -- 30.09 in1019.0 mb - 0.00 in0.0 mm 0.00 in0.0 mm
10:10 PM 56.6°F13.7°C 55.2°F12.9°C 95% 1.2 mph SE1.9 kmh SE 1.2 mph1.9 kmh 30.08 in1018.6 mb - 0.00 in0.0 mm 0.00 in0.0 mm
10:20 PM 56.8°F13.8°C 55.6°F13.1°C 96% Calm Calm -- 30.09 in1019.0 mb - 0.00 in0.0 mm 0.00 in0.0 mm
10:30 PM 56.9°F13.8°C 55.7°F13.2°C 96% Calm Calm -- 30.09 in1019.0 mb - 0.00 in0.0 mm 0.00 in0.0 mm
10:40 PM 56.6°F13.7°C 55.5°F13.1°C 96% Calm Calm -- 30.09 in1019.0 mb - 0.00 in0.0 mm 0.00 in0.0 mm
10:50 PM 56.6°F13.7°C 55.5°F13.1°C 96% Calm Calm -- 30.09 in1019.0 mb - 0.00 in0.0 mm 0.00 in0.0 mm
11:00 PM 56.9°F13.8°C 55.8°F13.2°C 96% Calm Calm -- 30.09 in1019.0 mb - 0.00 in0.0 mm 0.00 in0.0 mm
11:10 PM 57.4°F14.1°C 56.3°F13.5°C 96% Calm Calm 2.3 mph3.7 kmh 30.09 in1019.0 mb - 0.00 in0.0 mm 0.00 in0.0 mm
11:20 PM 57.8°F14.3°C 56.7°F13.7°C 96% Calm Calm -- 30.09 in1019.0 mb - 0.00 in0.0 mm 0.00 in0.0 mm
11:30 PM 58.2°F14.6°C 57.1°F13.9°C 96% 1.2 mph SE1.9 kmh SE 4.6 mph7.4 kmh 30.09 in1019.0 mb - 0.00 in0.0 mm 0.00 in0.0 mm
11:40 PM 58.5°F14.7°C 57.4°F14.1°C 96% 3.5 mph SSW5.6 kmh SSW 6.9 mph11.1 kmh 30.09 in1019.0 mb - 0.00 in0.0 mm 0.00 in0.0 mm
11:50 PM 58.7°F14.8°C 57.5°F14.2°C 96% 2.3 mph SSW3.7 kmh SSW 3.5 mph5.6 kmh 30.09 in1019.0 mb - 0.00 in0.0 mm 0.00 in0.0 mm